Charlotte Amalie, Virgin Islands
Current Conditions -  °F | °C
As of 2:53 AM on Monday 24 Nov 2014 (Local Time) from TJNR Reporting Station
Light Rain Light Rain  
Wind Chill: 77°   Ceiling: 3400
Heat Index: 78°   Visibility: 6mi
Dew Point: 72°   Wind: 8mph
Humidity: 84%   Direction: 80°E
Pressure: 30.02"   Gusts: 18mph
Location:  18.3436°N, 64.9322°W
Report Text: TJNR 240653Z AUTO 08007G16KT 6SM -RA FEW024 BKN034 OVC043 25/22 A3002 RMK AO2 RAB48 SLP164 P0000 T02500222 $
Loading
Personal Weather Stations






























Interactive Weather Map New forecast layout! Learn more

10-Day Weather Forecast

Advertisements
Track Severe Weather on mobile